Terminal Aerodrome Forecast
Issued by NWS

Current Version | Previous Version | Graphics & Text | Print | Product List | Glossary On
Versions: 1 2 3 4 5 6 7 8 9 10 11 12 13 14 15 16 17 18 19 20 21 22
393
FTUS41 KILN 202327
TAFLUK
TAF
KLUK 202327Z 2100/2124 00000KT P6SM FEW060 SCT250
     FM210600 00000KT 4SM BR SKC
     FM211300 18005KT P6SM FEW050=

USA.gov is the U.S. government's official web portal to all federal, state and local government web resources and services.